createdAt,value
2022-08-16T00:00:44.150Z,100153.22
2022-08-16T00:03:14.877Z,100159.06
2022-08-16T00:05:48.207Z,100155.38
2022-08-16T00:08:35.848Z,100146.41
2022-08-16T00:11:05.177Z,100149.78
2022-08-16T00:13:41.433Z,100150.88
2022-08-16T00:17:01.704Z,100158.63
2022-08-16T00:18:59.049Z,100162.78
2022-08-16T00:21:29.103Z,100168.97
2022-08-16T00:24:00.725Z,100166.47
2022-08-16T00:26:35.104Z,100173.22
2022-08-16T00:29:06.806Z,100161.69
2022-08-16T00:31:47.053Z,100174.28
2022-08-16T00:34:45.165Z,100180.47
2022-08-16T00:37:16.949Z,100180.06
2022-08-16T00:39:47.224Z,100177.28
2022-08-16T00:42:30.411Z,100187.34
2022-08-16T00:45:09.436Z,100182.78
2022-08-16T00:47:48.937Z,100183.00
2022-08-16T00:50:21.212Z,100183.44
2022-08-16T00:52:53.464Z,100173.97
2022-08-16T00:55:25.805Z,100178.38
2022-08-16T00:58:12.893Z,100175.75
2022-08-16T01:00:41.501Z,100179.31
2022-08-16T01:03:14.267Z,100183.44
2022-08-16T01:05:43.623Z,100182.28
2022-08-16T01:08:35.838Z,100184.81
2022-08-16T01:11:06.550Z,100182.50
2022-08-16T01:13:38.667Z,100184.53
2022-08-16T01:16:20.110Z,100190.69
2022-08-16T01:18:55.637Z,100193.94
2022-08-16T01:21:36.719Z,100207.09
2022-08-16T01:24:51.688Z,100204.69
2022-08-16T01:27:15.426Z,100206.41
2022-08-16T01:29:58.136Z,100205.41
2022-08-16T01:32:33.225Z,100214.19
2022-08-16T01:35:02.953Z,100211.94
2022-08-16T01:37:37.909Z,100210.38
2022-08-16T01:40:09.036Z,100216.19
2022-08-16T01:42:37.111Z,100221.16
2022-08-16T01:45:10.769Z,100227.16
2022-08-16T01:47:49.373Z,100228.94
2022-08-16T01:50:43.351Z,100228.41
2022-08-16T01:53:10.165Z,100216.41
2022-08-16T01:55:41.438Z,100218.88
2022-08-16T01:58:10.807Z,100219.72
2022-08-16T02:00:40.272Z,100217.91
2022-08-16T02:03:08.565Z,100213.03
2022-08-16T02:05:42.128Z,100217.75
2022-08-16T02:08:32.713Z,100213.63
2022-08-16T02:11:06.476Z,100225.75
2022-08-16T02:13:35.506Z,100235.19
2022-08-16T02:16:18.730Z,100234.13
2022-08-16T02:18:48.393Z,100226.91
2022-08-16T02:21:18.561Z,100235.59
2022-08-16T02:23:59.853Z,100228.56
2022-08-16T02:26:29.604Z,100235.28
2022-08-16T02:29:02.623Z,100233.88
2022-08-16T02:32:02.737Z,100242.06
2022-08-16T02:34:20.884Z,100235.63
2022-08-16T02:37:00.899Z,100232.78
2022-08-16T02:39:30.266Z,100227.69
2022-08-16T02:41:59.688Z,100232.66
2022-08-16T02:44:28.539Z,100229.13
2022-08-16T02:46:56.478Z,100230.34
2022-08-16T02:49:57.946Z,100229.72
2022-08-16T02:52:24.493Z,100228.69
2022-08-16T02:54:55.240Z,100227.06
2022-08-16T02:57:25.105Z,100228.34
2022-08-16T02:59:53.336Z,100225.91
2022-08-16T03:02:21.340Z,100238.75
2022-08-16T03:05:00.339Z,100231.31
2022-08-16T03:07:29.890Z,100235.00
2022-08-16T03:10:08.502Z,100239.03
2022-08-16T03:12:55.487Z,100243.03
2022-08-16T03:15:24.636Z,100243.28
2022-08-16T03:17:54.232Z,100239.03
2022-08-16T03:20:32.269Z,100238.03
2022-08-16T03:23:01.868Z,100247.22
2022-08-16T03:25:44.342Z,100247.59
2022-08-16T03:28:17.271Z,100246.13
2022-08-16T03:30:45.907Z,100246.44
2022-08-16T03:33:15.801Z,100249.53
2022-08-16T03:35:44.761Z,100250.53
2022-08-16T03:38:34.039Z,100247.59
2022-08-16T03:41:05.138Z,100251.84
2022-08-16T03:43:51.579Z,100256.06
2022-08-16T03:46:44.461Z,100260.03
2022-08-16T03:49:12.110Z,100258.06
2022-08-16T03:51:41.410Z,100255.34
2022-08-16T03:54:12.718Z,100261.56
2022-08-16T03:56:57.191Z,100258.53
2022-08-16T03:59:29.818Z,100255.81
2022-08-16T04:01:58.965Z,100265.97
2022-08-16T04:04:33.292Z,100260.03
2022-08-16T04:07:03.459Z,100266.13
2022-08-16T04:09:32.092Z,100253.78
2022-08-16T04:12:10.969Z,100271.66
2022-08-16T04:14:46.660Z,100269.72
2022-08-16T04:17:16.400Z,100276.09
2022-08-16T04:19:46.741Z,100268.59
2022-08-16T04:22:17.119Z,100267.28
2022-08-16T04:24:55.225Z,100271.81
2022-08-16T04:27:29.073Z,100271.09
2022-08-16T04:30:03.213Z,100279.38
2022-08-16T04:32:31.780Z,100278.63
2022-08-16T04:35:02.261Z,100270.53
2022-08-16T04:37:42.415Z,100275.22
2022-08-16T04:40:21.485Z,100278.31
2022-08-16T04:42:50.464Z,100286.16
2022-08-16T04:45:36.320Z,100283.69
2022-08-16T04:48:05.482Z,100284.34
2022-08-16T04:50:33.978Z,100290.53
2022-08-16T04:53:01.770Z,100285.41
2022-08-16T04:55:38.109Z,100284.72
2022-08-16T04:58:45.163Z,100291.06
2022-08-16T05:00:57.980Z,100284.41
2022-08-16T05:03:26.152Z,100288.66
2022-08-16T05:05:55.891Z,100297.34
2022-08-16T05:08:31.048Z,100299.94
2022-08-16T05:11:01.297Z,100292.97
2022-08-16T05:13:41.267Z,100303.34
2022-08-16T05:16:20.108Z,100298.06
2022-08-16T05:18:48.670Z,100293.88
2022-08-16T05:21:16.477Z,100298.53
2022-08-16T05:23:51.756Z,100293.44
2022-08-16T05:26:28.270Z,100295.53
2022-08-16T05:28:57.332Z,100298.69
2022-08-16T05:31:29.906Z,100302.09
2022-08-16T05:34:00.274Z,100310.44
2022-08-16T05:36:34.255Z,100300.88
2022-08-16T05:39:07.849Z,100301.94
2022-08-16T05:41:45.083Z,100304.19
2022-08-16T05:44:22.840Z,100300.59
2022-08-16T05:46:56.621Z,100293.25
2022-08-16T05:49:38.628Z,100304.88
2022-08-16T05:52:11.302Z,100305.03
2022-08-16T05:54:46.816Z,100299.50
2022-08-16T05:57:17.161Z,100301.50
2022-08-16T05:59:47.193Z,100304.03
2022-08-16T06:02:17.521Z,100299.25
2022-08-16T06:04:45.823Z,100297.63
2022-08-16T06:07:26.193Z,100307.91
2022-08-16T06:09:58.308Z,100304.25
2022-08-16T06:12:29.154Z,100309.69
2022-08-16T06:14:59.644Z,100307.72
2022-08-16T06:17:41.759Z,100303.28
2022-08-16T06:20:18.144Z,100317.31
2022-08-16T06:22:57.745Z,100312.75
2022-08-16T06:25:36.597Z,100314.44
2022-08-16T06:28:16.972Z,100323.97
2022-08-16T06:30:59.753Z,100321.78
2022-08-16T06:33:41.902Z,100326.31
2022-08-16T06:36:11.517Z,100327.69
2022-08-16T06:38:39.751Z,100337.78
2022-08-16T06:41:27.692Z,100326.47
2022-08-16T06:43:56.479Z,100337.72
2022-08-16T06:46:31.726Z,100356.25
2022-08-16T06:49:01.670Z,100352.53
2022-08-16T06:51:45.221Z,100351.78
2022-08-16T06:54:16.470Z,100353.28
2022-08-16T06:56:45.700Z,100354.66
2022-08-16T06:59:14.113Z,100353.28
2022-08-16T07:01:46.250Z,100359.47
2022-08-16T07:04:32.088Z,100347.88
2022-08-16T07:07:01.767Z,100345.09
2022-08-16T07:09:31.389Z,100352.94
2022-08-16T07:12:05.484Z,100359.47
2022-08-16T07:14:35.226Z,100358.13
2022-08-16T07:17:03.605Z,100354.13
2022-08-16T07:20:30.085Z,100354.78
2022-08-16T07:22:37.942Z,100359.28
2022-08-16T07:25:10.713Z,100359.91
2022-08-16T07:27:41.109Z,100354.59
2022-08-16T07:30:39.219Z,100359.31
2022-08-16T07:33:04.510Z,100368.84
2022-08-16T07:35:36.951Z,100361.28
2022-08-16T07:38:12.581Z,100362.97
2022-08-16T07:40:59.995Z,100370.25
2022-08-16T07:43:29.946Z,100373.09
2022-08-16T07:45:58.764Z,100368.91
2022-08-16T07:48:29.736Z,100375.44
2022-08-16T07:51:01.586Z,100375.34
2022-08-16T07:53:35.060Z,100379.50
2022-08-16T07:56:12.170Z,100378.91
2022-08-16T07:58:42.300Z,100386.88
2022-08-16T08:01:13.049Z,100380.50
2022-08-16T08:03:48.901Z,100385.06
2022-08-16T08:06:19.656Z,100388.44
2022-08-16T08:08:51.616Z,100381.88
2022-08-16T08:11:23.561Z,100379.84
2022-08-16T08:13:53.823Z,100384.97
2022-08-16T08:16:30.384Z,100381.53
2022-08-16T08:19:00.473Z,100388.84
2022-08-16T08:21:59.191Z,100385.50
2022-08-16T08:24:32.009Z,100390.44
2022-08-16T08:27:02.451Z,100393.78
2022-08-16T08:29:37.597Z,100401.84
2022-08-16T08:32:57.255Z,100405.88
2022-08-16T08:35:00.381Z,100406.59
2022-08-16T08:37:55.168Z,100409.97
2022-08-16T08:40:24.721Z,100412.97
2022-08-16T08:43:00.216Z,100405.38
2022-08-16T08:45:48.878Z,100412.47
2022-08-16T08:48:33.900Z,100414.22
2022-08-16T08:51:04.418Z,100412.81
2022-08-16T08:53:34.058Z,100410.84
2022-08-16T08:56:23.432Z,100410.94
2022-08-16T08:58:54.633Z,100418.72
2022-08-16T09:01:36.293Z,100411.81
2022-08-16T09:04:06.054Z,100413.97
2022-08-16T09:06:35.180Z,100403.38
2022-08-16T09:09:06.753Z,100412.28
2022-08-16T09:11:40.549Z,100415.06
2022-08-16T09:14:24.743Z,100414.06
2022-08-16T09:17:01.543Z,100418.59
2022-08-16T09:19:33.904Z,100418.19
2022-08-16T09:22:03.263Z,100418.75
2022-08-16T09:24:51.977Z,100414.59
2022-08-16T09:27:21.476Z,100420.16
2022-08-16T09:29:59.982Z,100420.09
2022-08-16T09:32:30.831Z,100420.25
2022-08-16T09:35:01.437Z,100422.44
2022-08-16T09:37:36.653Z,100415.25
2022-08-16T09:40:31.831Z,100419.16
2022-08-16T09:42:59.286Z,100417.81
2022-08-16T09:45:30.133Z,100418.53
2022-08-16T09:47:59.115Z,100411.34
2022-08-16T09:50:36.927Z,100403.81
2022-08-16T09:53:15.346Z,100407.41
2022-08-16T09:55:49.027Z,100400.72
2022-08-16T09:58:41.247Z,100406.66
2022-08-16T10:01:05.856Z,100402.31
2022-08-16T10:03:36.424Z,100400.63
2022-08-16T10:06:05.026Z,100405.38
2022-08-16T10:08:33.131Z,100404.97
2022-08-16T10:11:49.907Z,100394.47
2022-08-16T10:14:19.842Z,100405.28
2022-08-16T10:16:59.822Z,100405.50
2022-08-16T10:19:32.055Z,100399.16
2022-08-16T10:22:04.560Z,100402.81
2022-08-16T10:24:33.777Z,100398.28
2022-08-16T10:27:25.813Z,100391.28
2022-08-16T10:30:01.401Z,100400.81
2022-08-16T10:32:35.488Z,100400.94
2022-08-16T10:35:08.958Z,100393.25
2022-08-16T10:37:36.936Z,100401.50
2022-08-16T10:40:28.745Z,100393.31
2022-08-16T10:42:59.904Z,100396.94
2022-08-16T10:45:36.990Z,100394.38
2022-08-16T10:48:27.695Z,100397.47
2022-08-16T10:50:58.263Z,100397.03
2022-08-16T10:53:33.218Z,100400.75
2022-08-16T10:56:02.987Z,100393.59
2022-08-16T10:58:34.948Z,100398.84
2022-08-16T11:03:57.128Z,100388.22
2022-08-16T11:06:27.710Z,100393.06
2022-08-16T11:14:36.638Z,100393.81
2022-08-16T11:17:10.537Z,100397.16
2022-08-16T11:22:47.139Z,100396.81
2022-08-16T11:28:09.961Z,100404.69
2022-08-16T11:30:41.232Z,100400.69
2022-08-16T11:33:10.758Z,100399.03
2022-08-16T11:35:44.210Z,100398.38
2022-08-16T11:38:47.456Z,100401.19
2022-08-16T11:41:05.115Z,100390.31
2022-08-16T11:43:38.785Z,100390.81
2022-08-16T11:46:44.406Z,100402.41
2022-08-16T11:48:59.651Z,100399.41
2022-08-16T11:51:27.521Z,100407.94
2022-08-16T11:53:55.433Z,100405.38
2022-08-16T11:56:51.608Z,100400.06
2022-08-16T11:59:14.809Z,100408.63
2022-08-16T12:01:59.572Z,100400.41
2022-08-16T12:04:28.466Z,100398.66
2022-08-16T12:06:57.058Z,100387.56
2022-08-16T12:09:25.075Z,100395.09
2022-08-16T12:11:58.254Z,100396.91
2022-08-16T12:14:26.974Z,100393.25
2022-08-16T12:17:08.111Z,100398.66
2022-08-16T12:19:36.471Z,100401.97
2022-08-16T12:22:19.409Z,100405.56
2022-08-16T12:24:52.364Z,100398.56
2022-08-16T12:27:23.999Z,100396.53
2022-08-16T12:29:52.566Z,100392.63
2022-08-16T12:32:37.906Z,100396.00
2022-08-16T12:35:14.498Z,100401.41
2022-08-16T12:37:43.899Z,100402.72
2022-08-16T12:40:24.634Z,100404.38
2022-08-16T12:42:58.705Z,100398.00
2022-08-16T12:45:30.615Z,100393.63
2022-08-16T12:48:35.203Z,100398.94
2022-08-16T12:51:10.877Z,100389.41
2022-08-16T12:53:45.740Z,100397.66
2022-08-16T12:56:15.077Z,100397.41
2022-08-16T12:58:49.328Z,100392.31
2022-08-16T13:01:19.602Z,100393.53
2022-08-16T13:04:11.510Z,100391.28
2022-08-16T13:06:45.193Z,100388.81
2022-08-16T13:09:20.433Z,100390.03
2022-08-16T13:12:00.164Z,100382.38
2022-08-16T13:14:34.034Z,100389.16
2022-08-16T13:17:06.614Z,100384.09
2022-08-16T13:20:06.546Z,100380.75
2022-08-16T13:22:26.632Z,100385.56
2022-08-16T13:24:55.856Z,100389.38
2022-08-16T13:27:59.188Z,100389.22
2022-08-16T13:30:36.286Z,100389.81
2022-08-16T13:33:11.189Z,100389.38
2022-08-16T13:35:45.591Z,100386.19
2022-08-16T13:38:24.940Z,100389.34
2022-08-16T13:40:56.567Z,100383.19
2022-08-16T13:43:27.166Z,100384.66
2022-08-16T13:45:56.394Z,100389.47
2022-08-16T13:48:25.880Z,100386.84
2022-08-16T13:51:02.514Z,100387.44
2022-08-16T13:53:32.462Z,100384.06
2022-08-16T13:56:00.633Z,100389.66
2022-08-16T13:58:36.697Z,100384.81
2022-08-16T14:01:09.961Z,100389.31
2022-08-16T14:03:39.654Z,100379.75
2022-08-16T14:06:11.142Z,100381.47
2022-08-16T14:08:41.888Z,100381.03
2022-08-16T14:11:12.604Z,100379.47
2022-08-16T14:13:43.752Z,100385.72
2022-08-16T14:16:23.891Z,100386.59
2022-08-16T14:18:53.250Z,100384.22
2022-08-16T14:21:24.132Z,100392.78
2022-08-16T14:23:52.896Z,100384.19
2022-08-16T14:26:21.347Z,100387.22
2022-08-16T14:28:50.849Z,100383.25
2022-08-16T14:31:20.322Z,100381.50
2022-08-16T14:33:48.357Z,100383.09
2022-08-16T14:36:18.736Z,100381.66
2022-08-16T14:38:54.559Z,100377.00
2022-08-16T14:41:22.415Z,100378.16
2022-08-16T14:43:50.885Z,100377.34
2022-08-16T14:46:18.777Z,100380.59
2022-08-16T14:48:46.860Z,100377.91
2022-08-16T14:51:15.833Z,100377.63
2022-08-16T14:53:45.314Z,100375.00
2022-08-16T14:56:38.201Z,100373.88
2022-08-16T14:59:02.707Z,100374.75
2022-08-16T15:01:57.946Z,100374.75
2022-08-16T15:04:40.493Z,100372.34
2022-08-16T15:07:11.217Z,100371.22
2022-08-16T15:09:44.442Z,100371.84
2022-08-16T15:12:33.902Z,100370.84
2022-08-16T15:15:12.753Z,100370.84
2022-08-16T15:17:56.198Z,100368.22
2022-08-16T15:20:29.363Z,100370.16
2022-08-16T15:23:00.249Z,100374.50
2022-08-16T15:25:33.468Z,100373.09
2022-08-16T15:28:05.992Z,100373.00
2022-08-16T15:30:57.126Z,100371.06
2022-08-16T15:33:26.842Z,100375.28
2022-08-16T15:35:58.232Z,100372.78
2022-08-16T15:38:55.000Z,100376.91
2022-08-16T15:41:52.025Z,100369.19
2022-08-16T15:44:26.130Z,100377.50
2022-08-16T15:46:59.909Z,100372.59
2022-08-16T15:49:46.373Z,100376.69
2022-08-16T15:52:20.467Z,100371.59
2022-08-16T15:54:53.079Z,100376.91
2022-08-16T15:57:22.293Z,100371.44
2022-08-16T15:59:55.812Z,100376.63
2022-08-16T16:02:29.504Z,100374.69
2022-08-16T16:05:02.387Z,100378.00
2022-08-16T16:07:33.896Z,100377.44
2022-08-16T16:10:05.202Z,100383.41
2022-08-16T16:12:54.358Z,100375.31
2022-08-16T16:15:29.314Z,100381.09
2022-08-16T16:17:58.241Z,100378.34
2022-08-16T16:20:31.730Z,100376.19
2022-08-16T16:23:02.387Z,100378.38
2022-08-16T16:25:33.681Z,100373.50
2022-08-16T16:28:02.538Z,100373.78
2022-08-16T16:30:44.621Z,100379.28
2022-08-16T16:33:20.880Z,100377.75
2022-08-16T16:35:56.981Z,100383.22
2022-08-16T16:38:30.551Z,100387.53
2022-08-16T16:41:00.478Z,100392.22
2022-08-16T16:43:31.641Z,100395.56
2022-08-16T16:46:05.823Z,100390.47
2022-08-16T16:48:53.045Z,100397.50
2022-08-16T16:51:22.625Z,100402.16
2022-08-16T16:53:56.072Z,100396.16
2022-08-16T16:56:31.353Z,100394.50
2022-08-16T16:59:07.022Z,100404.00
2022-08-16T17:01:57.662Z,100406.56
2022-08-16T17:04:31.693Z,100414.63
2022-08-16T17:07:01.791Z,100410.47
2022-08-16T17:09:30.958Z,100413.66
2022-08-16T17:11:59.559Z,100407.84
2022-08-16T17:14:32.724Z,100424.81
2022-08-16T17:17:17.601Z,100421.81
2022-08-16T17:19:45.801Z,100421.63
2022-08-16T17:22:19.858Z,100417.66
2022-08-16T17:24:52.408Z,100420.09
2022-08-16T17:27:33.791Z,100418.22
2022-08-16T17:30:16.111Z,100423.75
2022-08-16T17:32:54.552Z,100433.34
2022-08-16T17:35:34.016Z,100429.91
2022-08-16T17:38:04.800Z,100439.25
2022-08-16T17:40:46.958Z,100433.22
2022-08-16T17:43:33.005Z,100437.31
2022-08-16T17:46:02.575Z,100442.09
2022-08-16T17:48:32.211Z,100443.03
2022-08-16T17:51:00.655Z,100453.94
2022-08-16T17:53:28.557Z,100444.28
2022-08-16T17:55:56.877Z,100445.03
2022-08-16T17:58:25.249Z,100441.63
2022-08-16T18:00:56.776Z,100446.84
2022-08-16T18:03:40.812Z,100455.09
2022-08-16T18:06:24.037Z,100450.22
2022-08-16T18:09:00.302Z,100451.56
2022-08-16T18:11:32.918Z,100451.41
2022-08-16T18:14:00.926Z,100452.06
2022-08-16T18:16:28.793Z,100453.03
2022-08-16T18:18:58.465Z,100455.41
2022-08-16T18:21:45.315Z,100455.41
2022-08-16T18:24:15.373Z,100454.56
2022-08-16T18:26:46.042Z,100467.50
2022-08-16T18:29:14.281Z,100468.38
2022-08-16T18:31:42.284Z,100471.38
2022-08-16T18:34:11.637Z,100464.34
2022-08-16T18:36:39.570Z,100475.59
2022-08-16T18:39:07.521Z,100467.53
2022-08-16T18:41:37.126Z,100484.25
2022-08-16T18:44:26.273Z,100480.31
2022-08-16T18:46:56.534Z,100483.38
2022-08-16T18:49:26.309Z,100484.41
2022-08-16T18:51:58.852Z,100488.47
2022-08-16T18:54:28.185Z,100493.88
2022-08-16T18:56:58.091Z,100494.59
2022-08-16T18:59:29.473Z,100495.44
2022-08-16T19:02:04.179Z,100502.00
2022-08-16T19:04:54.851Z,100499.03
2022-08-16T19:07:31.283Z,100498.75
2022-08-16T19:10:01.463Z,100501.09
2022-08-16T19:12:38.343Z,100510.38
2022-08-16T19:15:15.899Z,100514.34
2022-08-16T19:17:45.167Z,100509.47
2022-08-16T19:20:22.311Z,100515.63
2022-08-16T19:23:10.973Z,100507.78
2022-08-16T19:25:46.613Z,100509.81
2022-08-16T19:28:52.045Z,100512.03
2022-08-16T19:31:10.740Z,100508.56
2022-08-16T19:33:39.142Z,100516.16
2022-08-16T19:36:16.990Z,100521.84
2022-08-16T19:38:57.026Z,100532.63
2022-08-16T19:41:32.258Z,100529.03
2022-08-16T19:44:00.313Z,100529.31
2022-08-16T19:46:28.140Z,100528.25
2022-08-16T19:48:56.019Z,100531.88
2022-08-16T19:51:25.765Z,100535.63
2022-08-16T19:53:53.757Z,100535.16
2022-08-16T19:56:25.807Z,100529.50
2022-08-16T20:01:43.001Z,100529.41
2022-08-16T20:04:12.901Z,100541.31
2022-08-16T20:06:42.787Z,100524.13
2022-08-16T20:09:15.326Z,100537.63
2022-08-16T20:11:45.185Z,100527.72
2022-08-16T20:14:20.184Z,100540.72
2022-08-16T20:16:56.716Z,100535.81
2022-08-16T20:19:25.271Z,100541.50
2022-08-16T20:21:56.339Z,100543.00
2022-08-16T20:24:39.913Z,100536.31
2022-08-16T20:27:10.653Z,100541.50
2022-08-16T20:29:42.912Z,100540.84
2022-08-16T20:32:15.817Z,100551.22
2022-08-16T20:34:47.447Z,100547.72
2022-08-16T20:37:16.943Z,100556.72
2022-08-16T20:39:46.599Z,100555.63
2022-08-16T20:42:17.107Z,100551.25
2022-08-16T20:44:45.765Z,100555.25
2022-08-16T20:47:13.949Z,100551.69
2022-08-16T20:49:42.249Z,100560.84
2022-08-16T20:52:14.565Z,100560.53
2022-08-16T20:54:45.476Z,100560.84
2022-08-16T20:57:14.874Z,100560.84
2022-08-16T20:59:48.046Z,100568.97
2022-08-16T21:02:25.568Z,100562.97
2022-08-16T21:04:54.100Z,100568.81
2022-08-16T21:07:22.382Z,100561.44
2022-08-16T21:09:51.589Z,100559.69
2022-08-16T21:12:19.451Z,100556.69
2022-08-16T21:14:47.541Z,100561.97
2022-08-16T21:17:16.258Z,100567.09
2022-08-16T21:19:45.408Z,100556.16
2022-08-16T21:22:17.834Z,100556.34
2022-08-16T21:24:47.565Z,100561.13
2022-08-16T21:27:17.977Z,100561.56
2022-08-16T21:29:46.744Z,100558.34
2022-08-16T21:32:20.040Z,100558.16
2022-08-16T21:35:07.707Z,100562.44
2022-08-16T21:37:35.817Z,100563.00
2022-08-16T21:40:05.352Z,100562.22
2022-08-16T21:42:44.581Z,100559.09
2022-08-16T21:45:15.249Z,100558.66
2022-08-16T21:47:44.402Z,100565.03
2022-08-16T21:50:15.206Z,100563.66
2022-08-16T21:52:43.077Z,100559.94
2022-08-16T21:55:11.028Z,100551.16
2022-08-16T21:57:40.412Z,100556.94
2022-08-16T22:00:14.171Z,100554.66
2022-08-16T22:02:42.415Z,100550.72
2022-08-16T22:05:10.641Z,100560.34
2022-08-16T22:07:38.532Z,100561.31
2022-08-16T22:11:06.735Z,100569.88
2022-08-16T22:12:57.435Z,100570.72
2022-08-16T22:15:26.823Z,100570.16
2022-08-16T22:17:57.399Z,100574.84
2022-08-16T22:20:27.792Z,100579.16
2022-08-16T22:23:07.558Z,100580.66
2022-08-16T22:25:35.508Z,100579.81
2022-08-16T22:28:06.390Z,100586.91
2022-08-16T22:30:34.340Z,100592.53
2022-08-16T22:33:08.893Z,100590.94
2022-08-16T22:35:43.396Z,100592.78
2022-08-16T22:38:54.504Z,100589.19
2022-08-16T22:41:01.589Z,100593.38
2022-08-16T22:43:32.291Z,100595.09
2022-08-16T22:46:00.214Z,100606.69
2022-08-16T22:48:28.396Z,100600.44
2022-08-16T22:50:56.265Z,100598.88
2022-08-16T22:53:26.952Z,100595.19
2022-08-16T22:55:55.052Z,100606.25
2022-08-16T22:58:34.055Z,100596.78
2022-08-16T23:01:05.835Z,100597.69
2022-08-16T23:03:34.664Z,100602.31
2022-08-16T23:06:02.639Z,100598.28
2022-08-16T23:08:38.664Z,100600.28
2022-08-16T23:11:20.915Z,100594.75
2022-08-16T23:13:53.103Z,100583.78
2022-08-16T23:16:32.796Z,100584.38
2022-08-16T23:19:03.640Z,100592.56
2022-08-16T23:21:32.266Z,100591.91
2022-08-16T23:24:00.158Z,100597.72
2022-08-16T23:26:47.105Z,100595.09
2022-08-16T23:29:22.246Z,100595.09
2022-08-16T23:31:55.009Z,100594.13
2022-08-16T23:34:23.014Z,100579.06
2022-08-16T23:36:51.026Z,100584.66
2022-08-16T23:39:19.001Z,100585.56
2022-08-16T23:41:48.274Z,100578.88
2022-08-16T23:44:42.325Z,100579.72
2022-08-16T23:47:05.226Z,100585.63
2022-08-16T23:49:57.199Z,100574.00
2022-08-16T23:52:39.267Z,100578.94
2022-08-16T23:55:10.214Z,100587.00
2022-08-16T23:57:39.528Z,100575.44
